Time;durP1;ratioP1;P1;durP2;ratioP2;P2;SDS_P1;SDS_P2;PMS_P1;PMS_P2;Temp;Humidity;BMP_temperature;BMP_pressure;BME280_temperature;BME280_humidity;BME280_pressure;Samples;Min_cycle;Max_cycle;Signal;HPM_P1;HPM_P2
2022/07/10 00:00:17;;;;;;;6.97;1.75;;;14.40;99.90;;;;;;5054155;28;20037;-72
2022/07/10 00:02:43;;;;;;;7.55;2.20;;;14.70;99.90;;;;;;5053724;28;20044;-71
2022/07/10 00:05:10;;;;;;;8.73;2.17;;;14.10;99.90;;;;;;5054364;28;20131;-71
2022/07/10 00:07:36;;;;;;;7.60;1.80;;;;;;;;;;5055907;28;20068;-71
2022/07/10 00:10:03;;;;;;;5.93;2.03;;;;;;;;;;5054593;28;20048;-71
2022/07/10 00:12:29;;;;;;;12.75;3.63;;;;;;;;;;5054586;28;20040;-71
2022/07/10 00:14:55;;;;;;;7.45;2.63;;;;;;;;;;5055120;28;20090;-71
2022/07/10 00:17:21;;;;;;;11.18;2.83;;;;;;;;;;5037445;28;20416;-71
2022/07/10 00:19:47;;;;;;;9.60;1.75;;;;;;;;;;5055317;28;20033;-71
2022/07/10 00:22:13;;;;;;;8.55;1.98;;;;;;;;;;5054523;28;20510;-71
2022/07/10 00:24:39;;;;;;;11.20;2.28;;;;;;;;;;5054442;28;20084;-72
2022/07/10 00:27:05;;;;;;;9.68;1.83;;;;;;;;;;5053963;28;20045;-71
2022/07/10 00:29:32;;;;;;;9.50;2.47;;;;;;;;;;5054808;28;20394;-71
2022/07/10 00:31:57;;;;;;;11.57;3.28;;;;;;;;;;5055003;28;20528;-71
2022/07/10 00:34:23;;;;;;;7.57;1.95;;;;;;;;;;5053932;28;20049;-71
2022/07/10 00:36:49;;;;;;;9.60;2.13;;;;;;;;;;5053106;28;20041;-71
2022/07/10 00:39:15;;;;;;;7.95;1.83;;;;;;;;;;5053866;28;20111;-70
2022/07/10 00:41:41;;;;;;;9.75;2.83;;;14.70;99.90;;;;;;5054354;28;20067;-70
2022/07/10 00:44:07;;;;;;;9.32;2.67;;;14.30;99.90;;;;;;5036156;28;20041;-71
2022/07/10 00:46:33;;;;;;;7.00;1.88;;;14.50;99.90;;;;;;5054100;28;20051;-76
2022/07/10 00:48:59;;;;;;;5.25;1.50;;;14.50;99.90;;;;;;5036760;28;20129;-77
2022/07/10 00:51:27;;;;;;;13.10;2.33;;;14.60;99.90;;;;;;5054425;28;20119;-80
2022/07/10 00:53:53;;;;;;;9.80;2.13;;;;;;;;;;5053609;28;20097;-81
2022/07/10 00:56:22;;;;;;;6.85;1.73;;;14.70;99.90;;;;;;5053810;28;20489;-78
2022/07/10 00:58:49;;;;;;;9.52;2.15;;;14.60;99.90;;;;;;5054197;28;20086;-78
2022/07/10 01:01:16;;;;;;;7.13;1.65;;;14.20;99.90;;;;;;5053439;28;20502;-80
2022/07/10 01:03:43;;;;;;;7.28;1.50;;;14.60;99.90;;;;;;5052390;28;20490;-79
2022/07/10 01:06:09;;;;;;;6.57;1.90;;;15.00;99.90;;;;;;5052654;28;20048;-80
2022/07/10 01:08:35;;;;;;;10.27;1.95;;;14.60;99.90;;;;;;5053575;28;20036;-79
2022/07/10 01:11:01;;;;;;;8.98;1.92;;;14.80;99.90;;;;;;5054367;28;20107;-78
2022/07/10 01:13:27;;;;;;;7.13;1.33;;;14.60;99.90;;;;;;5053248;28;20067;-80
2022/07/10 01:15:53;;;;;;;8.70;2.13;;;;;;;;;;5052865;28;20478;-80
2022/07/10 01:18:19;;;;;;;5.75;1.63;;;14.20;99.90;;;;;;5052580;28;20068;-79
2022/07/10 01:20:45;;;;;;;4.65;1.73;;;14.20;99.90;;;;;;5053141;28;20127;-80
2022/07/10 01:23:10;;;;;;;6.78;1.83;;;14.70;99.90;;;;;;5053017;28;20469;-79
2022/07/10 01:25:36;;;;;;;8.02;2.17;;;14.80;99.90;;;;;;5053845;28;20049;-79
2022/07/10 01:28:02;;;;;;;8.32;2.25;;;14.60;99.90;;;;;;5054137;28;20044;-80
2022/07/10 01:30:27;;;;;;;4.90;1.48;;;14.50;99.90;;;;;;5054561;28;20048;-80
2022/07/10 01:32:53;;;;;;;5.40;1.80;;;14.60;99.90;;;;;;5051746;28;20032;-80
2022/07/10 01:35:19;;;;;;;7.53;2.30;;;14.80;99.90;;;;;;5052923;28;20055;-79
2022/07/10 01:37:45;;;;;;;7.10;1.40;;;14.50;99.90;;;;;;5052909;28;20460;-80
2022/07/10 01:40:11;;;;;;;8.15;2.13;;;14.30;99.90;;;;;;5052393;28;20448;-79
2022/07/10 01:42:38;;;;;;;5.60;1.77;;;14.50;99.90;;;;;;5054392;28;20174;-80
2022/07/10 01:45:08;;;;;;;5.22;1.38;;;14.80;99.90;;;;;;5053652;28;20115;-80
2022/07/10 01:47:34;;;;;;;6.60;1.38;;;14.50;99.90;;;;;;5051944;28;20076;-80
2022/07/10 01:50:00;;;;;;;10.13;1.83;;;14.60;99.90;;;;;;5053741;28;20449;-79
2022/07/10 01:52:25;;;;;;;8.68;1.83;;;14.40;99.90;;;;;;5054024;28;20041;-80
2022/07/10 01:54:51;;;;;;;8.15;1.55;;;14.60;99.90;;;;;;5052846;28;20083;-79
2022/07/10 01:57:17;;;;;;;10.10;2.08;;;14.10;99.90;;;;;;5035796;28;20041;-79
2022/07/10 01:59:43;;;;;;;6.13;1.63;;;14.30;99.90;;;;;;5052622;28;20096;-79
2022/07/10 02:02:09;;;;;;;8.38;2.40;;;14.20;99.90;;;;;;5051773;28;20525;-79
2022/07/10 02:04:41;;;;;;;8.55;1.70;;;14.50;99.90;;;;;;5053641;28;20402;-79
2022/07/10 02:07:14;;;;;;;8.27;1.80;;;14.40;99.90;;;;;;5053462;28;20500;-79
2022/07/10 02:09:41;;;;;;;10.23;2.15;;;14.40;99.90;;;;;;5051810;28;20041;-79
2022/07/10 02:12:11;;;;;;;6.57;1.75;;;14.90;99.90;;;;;;5051807;28;20049;-79
2022/07/10 02:14:37;;;;;;;7.63;2.03;;;14.70;99.90;;;;;;5052511;28;20036;-79
2022/07/10 02:17:07;;;;;;;8.48;1.85;;;14.10;99.90;;;;;;5035161;28;20048;-79
2022/07/10 02:19:34;;;;;;;7.82;1.60;;;14.60;99.90;;;;;;5053485;28;20127;-79
2022/07/10 02:22:00;;;;;;;11.32;1.92;;;14.90;99.90;;;;;;5050771;28;20049;-79
2022/07/10 02:24:25;;;;;;;8.70;1.95;;;14.50;99.90;;;;;;5053589;28;20048;-79
2022/07/10 02:26:52;;;;;;;5.57;1.83;;;14.60;99.90;;;;;;5051872;28;20295;-79
2022/07/10 02:29:18;;;;;;;10.30;1.75;;;14.60;99.90;;;;;;5051352;28;20120;-80
2022/07/10 02:31:44;;;;;;;11.93;1.77;;;14.40;99.90;;;;;;5051607;28;20127;-79
2022/07/10 02:34:15;;;;;;;8.25;2.58;;;14.40;99.90;;;;;;5051925;28;20041;-80
2022/07/10 02:36:41;;;;;;;6.22;1.73;;;14.80;99.90;;;;;;5035159;28;20040;-78
2022/07/10 02:39:08;;;;;;;8.75;1.70;;;15.30;99.90;;;;;;5034758;28;20500;-81
2022/07/10 02:41:35;;;;;;;7.53;1.58;;;14.80;99.90;;;;;;5053104;28;20033;-81
2022/07/10 02:44:01;;;;;;;9.13;1.70;;;14.80;99.90;;;;;;5051591;28;20049;-80
2022/07/10 02:46:27;;;;;;;6.20;1.58;;;14.70;99.90;;;;;;5051729;28;20045;-80
2022/07/10 02:48:53;;;;;;;9.15;1.80;;;;;;;;;;5052560;28;20045;-80
2022/07/10 02:51:19;;;;;;;5.95;1.52;;;15.00;99.90;;;;;;5050974;28;20128;-80
2022/07/10 02:53:44;;;;;;;3.10;1.27;;;14.90;99.90;;;;;;5051251;28;20120;-80
2022/07/10 02:56:10;;;;;;;6.32;1.42;;;15.30;99.90;;;;;;5051323;28;20124;-79
2022/07/10 02:58:37;;;;;;;9.23;1.55;;;15.50;99.90;;;;;;5050939;28;20454;-79
2022/07/10 03:01:03;;;;;;;8.25;2.05;;;15.00;99.90;;;;;;5050940;28;20124;-79
2022/07/10 03:03:29;;;;;;;6.93;1.77;;;15.00;99.90;;;;;;5052886;28;20116;-79
2022/07/10 03:05:54;;;;;;;9.88;1.73;;;15.30;99.90;;;;;;5050256;28;20040;-79
2022/07/10 03:08:20;;;;;;;9.68;1.90;;;14.90;99.90;;;;;;5051515;28;20039;-79
2022/07/10 03:10:46;;;;;;;6.20;2.13;;;14.60;99.90;;;;;;5052435;28;20048;-79
2022/07/10 03:13:11;;;;;;;6.05;1.52;;;15.00;99.90;;;;;;5050319;28;20048;-79
2022/07/10 03:15:37;;;;;;;7.28;2.00;;;15.00;99.90;;;;;;5052284;28;20064;-79
2022/07/10 03:18:03;;;;;;;6.53;1.77;;;15.00;99.90;;;;;;5050433;28;20442;-80
2022/07/10 03:20:28;;;;;;;10.32;2.20;;;14.60;99.90;;;;;;5052389;28;20068;-78
2022/07/10 03:22:54;;;;;;;10.07;2.00;;;15.20;99.90;;;;;;5050692;28;20088;-77
2022/07/10 03:25:20;;;;;;;8.23;2.17;;;15.50;99.90;;;;;;5049860;28;20045;-78
2022/07/10 03:27:46;;;;;;;8.32;2.25;;;;;;;;;;5051862;28;20048;-79
2022/07/10 03:30:12;;;;;;;6.85;1.92;;;14.70;99.90;;;;;;5034083;28;20524;-79
2022/07/10 03:32:37;;;;;;;11.90;2.22;;;15.00;99.90;;;;;;5050398;28;20171;-79
2022/07/10 03:35:03;;;;;;;7.22;1.77;;;15.00;99.90;;;;;;5051815;28;20379;-79
2022/07/10 03:37:29;;;;;;;5.40;2.17;;;15.00;99.90;;;;;;5050989;28;20041;-79
2022/07/10 03:39:54;;;;;;;13.30;2.60;;;15.60;99.90;;;;;;5051040;28;20044;-78
2022/07/10 03:42:20;;;;;;;8.90;2.53;;;15.00;99.90;;;;;;5052089;28;20036;-79
2022/07/10 03:44:46;;;;;;;10.50;2.38;;;15.30;99.90;;;;;;5050477;28;20044;-78
2022/07/10 03:47:12;;;;;;;12.30;2.30;;;14.90;99.90;;;;;;5051312;28;20080;-80
2022/07/10 03:49:41;;;;;;;9.07;2.40;;;15.00;99.90;;;;;;5050872;28;20045;-79
2022/07/10 03:52:07;;;;;;;8.60;2.63;;;15.00;99.90;;;;;;5050311;28;20508;-79
2022/07/10 03:54:33;;;;;;;9.93;2.00;;;15.00;99.90;;;;;;5050111;28;20037;-78
2022/07/10 03:59:43;;;;;;;12.85;2.60;;;15.30;99.90;;;;;;5050696;28;20041;-75
2022/07/10 04:02:09;;;;;;;6.32;2.35;;;15.10;99.90;;;;;;5049855;28;20040;-74
2022/07/10 04:04:35;;;;;;;5.47;2.08;;;15.00;99.90;;;;;;5051905;28;20044;-73
2022/07/10 04:07:00;;;;;;;6.28;1.92;;;15.20;99.90;;;;;;5050468;28;20045;-73
2022/07/10 04:09:26;;;;;;;10.40;2.40;;;15.20;99.90;;;;;;5051078;28;20045;-73
2022/07/10 04:11:52;;;;;;;5.90;1.77;;;15.40;99.90;;;;;;5050273;28;20482;-73
2022/07/10 04:14:17;;;;;;;7.35;2.20;;;15.40;99.90;;;;;;5049666;28;20406;-73
2022/07/10 04:16:45;;;;;;;9.57;3.25;;;15.50;99.90;;;;;;5050551;28;20040;-73
2022/07/10 04:19:11;;;;;;;7.60;2.03;;;15.30;99.90;;;;;;5050246;28;20116;-73
2022/07/10 04:21:37;;;;;;;8.48;2.10;;;15.10;99.90;;;;;;5049604;28;20132;-73
2022/07/10 04:24:03;;;;;;;6.63;2.00;;;14.80;99.90;;;;;;5049968;28;20068;-72
2022/07/10 04:26:29;;;;;;;7.28;2.67;;;14.90;99.90;;;;;;5033846;28;20044;-73
2022/07/10 04:28:54;;;;;;;6.70;2.42;;;15.50;99.90;;;;;;5049246;28;20397;-72
2022/07/10 04:31:20;;;;;;;11.98;2.28;;;15.20;99.90;;;;;;5050445;28;20063;-72
2022/07/10 04:33:46;;;;;;;9.30;2.30;;;15.50;99.90;;;;;;5051306;28;20041;-72
2022/07/10 04:36:11;;;;;;;8.82;2.38;;;15.40;99.90;;;;;;5050628;28;20122;-72
2022/07/10 04:38:37;;;;;;;13.35;3.20;;;14.80;99.90;;;;;;5054065;28;20044;-73
2022/07/10 04:41:03;;;;;;;8.57;2.55;;;15.30;99.90;;;;;;5054635;28;20521;-72
2022/07/10 04:43:30;;;;;;;9.90;2.40;;;15.20;99.90;;;;;;5054707;28;20087;-75
2022/07/10 04:45:56;;;;;;;8.98;2.75;;;15.50;99.90;;;;;;5053676;28;20489;-72
2022/07/10 04:48:21;;;;;;;10.50;2.40;;;15.10;99.90;;;;;;5055586;28;20189;-73
2022/07/10 04:50:47;;;;;;;10.23;2.25;;;15.00;99.90;;;;;;5053106;28;20108;-71
2022/07/10 04:53:13;;;;;;;5.53;2.08;;;14.90;99.90;;;;;;5053762;28;20573;-72
2022/07/10 04:55:39;;;;;;;10.70;3.28;;;15.10;99.90;;;;;;5054885;28;20055;-71
2022/07/10 04:58:04;;;;;;;5.43;2.17;;;15.10;99.90;;;;;;5035958;28;20032;-71
2022/07/10 05:00:30;;;;;;;7.45;2.00;;;15.20;99.90;;;;;;5053970;28;20112;-71
2022/07/10 05:02:55;;;;;;;8.10;2.25;;;15.50;99.90;;;;;;5054437;28;20545;-71
2022/07/10 05:05:21;;;;;;;10.48;2.05;;;15.10;99.90;;;;;;5054103;28;20037;-71
2022/07/10 05:07:46;;;;;;;6.90;2.25;;;15.30;99.90;;;;;;5053350;28;20044;-71
2022/07/10 05:10:12;;;;;;;12.00;2.75;;;15.20;99.90;;;;;;5053493;28;20049;-71
2022/07/10 05:12:38;;;;;;;6.60;1.80;;;15.10;99.90;;;;;;5054135;28;20474;-73
2022/07/10 05:15:04;;;;;;;7.90;1.60;;;14.90;99.90;;;;;;5052869;28;20622;-71
2022/07/10 05:17:31;;;;;;;10.60;2.10;;;15.40;99.90;;;;;;5053129;28;20466;-72
2022/07/10 05:19:57;;;;;;;7.72;1.73;;;15.40;99.90;;;;;;5053232;28;20049;-72
2022/07/10 05:22:23;;;;;;;6.97;2.15;;;15.20;99.90;;;;;;5053223;28;20508;-72
2022/07/10 05:24:49;;;;;;;7.80;2.00;;;15.30;99.90;;;;;;5052117;28;20041;-72
2022/07/10 05:27:17;;;;;;;8.52;2.38;;;15.20;99.90;;;;;;5054358;28;20045;-72
2022/07/10 05:29:43;;;;;;;7.07;2.03;;;15.30;99.90;;;;;;5052887;28;20048;-72
2022/07/10 05:32:09;;;;;;;7.40;1.75;;;15.60;99.90;;;;;;5052430;28;20068;-75
2022/07/10 05:34:34;;;;;;;9.20;2.17;;;15.30;99.90;;;;;;5054362;28;20033;-76
2022/07/10 05:37:00;;;;;;;5.03;1.60;;;15.40;99.90;;;;;;5053814;28;20029;-78
2022/07/10 05:39:26;;;;;;;6.45;1.55;;;15.30;99.90;;;;;;5052038;28;20041;-77
2022/07/10 05:41:52;;;;;;;6.97;2.17;;;15.40;99.90;;;;;;5052785;28;20047;-77
2022/07/10 05:44:19;;;;;;;7.68;2.00;;;15.40;99.90;;;;;;5053276;28;20405;-75
2022/07/10 05:46:45;;;;;;;5.00;1.50;;;15.40;99.90;;;;;;5035445;28;20136;-78
2022/07/10 05:49:11;;;;;;;9.73;2.22;;;15.40;99.90;;;;;;5052041;28;20087;-78
2022/07/10 05:51:37;;;;;;;8.93;2.38;;;15.00;99.90;;;;;;5052647;28;20045;-75
2022/07/10 05:54:03;;;;;;;6.15;1.55;;;15.50;99.90;;;;;;5051168;28;20110;-77
2022/07/10 05:56:29;;;;;;;5.10;1.40;;;15.30;99.90;;;;;;5054179;28;20056;-77
2022/07/10 05:58:55;;;;;;;7.53;1.75;;;14.90;99.90;;;;;;5052146;28;20041;-79
2022/07/10 06:01:22;;;;;;;7.65;2.05;;;15.20;99.90;;;;;;5051940;28;20033;-77
2022/07/10 06:03:47;;;;;;;5.63;1.38;;;15.20;99.90;;;;;;5052433;28;20089;-75
2022/07/10 06:06:16;;;;;;;4.72;1.52;;;14.80;99.90;;;;;;5053438;28;20036;-76
2022/07/10 06:08:43;;;;;;;4.60;1.40;;;15.10;99.90;;;;;;5053027;28;20056;-72
2022/07/10 06:11:08;;;;;;;3.95;1.20;;;15.00;99.90;;;;;;5052255;28;20047;-71
2022/07/10 06:13:34;;;;;;;3.40;1.10;;;15.10;99.90;;;;;;5053715;28;20041;-72
2022/07/10 06:16:00;;;;;;;9.10;1.92;;;15.30;99.90;;;;;;5051064;28;20037;-71
2022/07/10 06:18:26;;;;;;;9.23;2.42;;;15.00;99.90;;;;;;5052251;28;20048;-72
2022/07/10 06:20:51;;;;;;;5.78;1.77;;;15.20;99.90;;;;;;5052154;28;20041;-73
2022/07/10 06:23:17;;;;;;;8.27;1.60;;;15.10;99.90;;;;;;5053341;28;20033;-73
2022/07/10 06:25:43;;;;;;;4.18;1.40;;;15.10;99.90;;;;;;5051841;28;20047;-73
2022/07/10 06:28:08;;;;;;;5.90;1.33;;;15.20;99.90;;;;;;5052304;28;20120;-74
2022/07/10 06:30:34;;;;;;;5.80;1.52;;;15.20;99.90;;;;;;5052332;28;20048;-73
2022/07/10 06:32:59;;;;;;;3.17;1.38;;;14.90;99.90;;;;;;5052765;28;20162;-71
2022/07/10 06:35:25;;;;;;;5.00;1.27;;;15.90;99.90;;;;;;5052350;28;20064;-72
2022/07/10 06:37:51;;;;;;;7.05;1.73;;;15.40;99.90;;;;;;5051549;28;20394;-73
2022/07/10 06:40:19;;;;;;;6.50;1.50;;;15.30;99.90;;;;;;5052889;28;20102;-72
2022/07/10 06:42:45;;;;;;;2.92;1.25;;;15.30;99.90;;;;;;5050806;28;20502;-74
2022/07/10 06:45:11;;;;;;;8.23;2.30;;;15.30;99.90;;;;;;5052823;28;20048;-77
2022/07/10 06:47:55;;;;;;;6.25;1.90;;;15.30;99.90;;;;;;5051880;28;20052;-74
2022/07/10 06:50:21;;;;;;;8.98;1.95;;;15.20;99.90;;;;;;5050966;28;20044;-75
2022/07/10 06:52:48;;;;;;;6.10;1.88;;;15.30;99.90;;;;;;5051678;28;20040;-75
2022/07/10 06:55:14;;;;;;;9.20;2.20;;;15.30;99.90;;;;;;5052635;28;20042;-75
2022/07/10 06:57:40;;;;;;;7.10;1.90;;;15.30;99.90;;;;;;5052031;28;20478;-74
2022/07/10 07:00:07;;;;;;;8.45;2.58;;;15.70;99.90;;;;;;5051700;28;20044;-75
2022/07/10 07:02:33;;;;;;;5.18;1.85;;;15.60;99.90;;;;;;5052348;28;20052;-75
2022/07/10 07:04:58;;;;;;;4.28;1.38;;;15.50;99.90;;;;;;5051519;28;20037;-74
2022/07/10 07:07:24;;;;;;;6.82;1.83;;;15.30;99.90;;;;;;5051296;28;20122;-73
2022/07/10 07:09:50;;;;;;;6.03;1.48;;;15.50;99.90;;;;;;5050967;28;20041;-73
2022/07/10 07:12:17;;;;;;;7.95;1.73;;;15.30;99.90;;;;;;5051526;28;20052;-73
2022/07/10 07:14:43;;;;;;;6.20;1.65;;;15.20;99.90;;;;;;5052133;28;20401;-74
2022/07/10 07:17:11;;;;;;;4.97;1.73;;;15.50;99.90;;;;;;5051368;28;20462;-75
2022/07/10 07:25:09;;;;;;;5.60;1.33;;;15.90;99.90;;;;;;5061300;28;20052;-75
2022/07/10 07:27:36;;;;;;;4.25;1.50;;;15.40;99.90;;;;;;5051009;28;20048;-73
2022/07/10 07:30:07;;;;;;;7.57;2.03;;;15.90;99.90;;;;;;5067982;28;20593;-75
2022/07/10 07:32:33;;;;;;;4.93;1.25;;;15.30;99.90;;;;;;5069640;28;20040;-74
2022/07/10 07:35:00;;;;;;;7.43;1.73;;;15.20;99.90;;;;;;5054022;28;20045;-73
2022/07/10 07:37:46;;;;;;;6.25;1.70;;;15.70;99.90;;;;;;5046780;28;20045;-73
2022/07/10 07:40:15;;;;;;;7.47;1.83;;;15.70;99.90;;;;;;5050084;28;20041;-73
2022/07/10 07:42:41;;;;;;;8.55;1.88;;;15.60;99.90;;;;;;5048447;28;20045;-74
2022/07/10 07:45:08;;;;;;;5.78;2.15;;;15.30;99.90;;;;;;5048077;28;20048;-74
2022/07/10 07:47:50;;;;;;;8.32;2.38;;;15.50;99.90;;;;;;5059115;28;20041;-74
2022/07/10 07:50:19;;;;;;;9.52;2.28;;;15.50;99.90;;;;;;5047776;28;20056;-74
2022/07/10 07:52:46;;;;;;;9.90;2.83;;;15.50;99.90;;;;;;5048046;28;20041;-73
2022/07/10 07:55:14;;;;;;;7.05;2.05;;;15.30;99.90;;;;;;5048489;28;20496;-75
2022/07/10 07:57:40;;;;;;;5.70;1.90;;;15.60;99.90;;;;;;5048612;28;20082;-77
2022/07/10 08:00:08;;;;;;;9.82;2.60;;;15.40;99.90;;;;;;5047445;28;20048;-75
2022/07/10 08:02:34;;;;;;;7.82;2.00;;;;;;;;;;5033320;28;20036;-75
2022/07/10 08:05:00;;;;;;;6.88;2.10;;;15.40;99.90;;;;;;5049107;28;20121;-74
2022/07/10 08:07:41;;;;;;;8.10;2.10;;;15.40;99.90;;;;;;5060663;28;20044;-75
2022/07/10 08:10:10;;;;;;;12.10;2.45;;;16.00;99.90;;;;;;5045355;28;20084;-74
2022/07/10 08:12:36;;;;;;;7.00;2.33;;;15.70;99.90;;;;;;5070075;28;20052;-74
2022/07/10 08:15:03;;;;;;;4.68;1.85;;;15.30;99.90;;;;;;5053011;28;20128;-75
2022/07/10 08:17:28;;;;;;;9.43;1.98;;;15.40;99.90;;;;;;5055306;28;20482;-78
2022/07/10 08:19:54;;;;;;;6.10;1.85;;;15.90;99.90;;;;;;5059280;28;20044;-77
2022/07/10 08:22:21;;;;;;;6.45;2.38;;;15.40;99.90;;;;;;5070597;28;20045;-75
2022/07/10 08:24:47;;;;;;;6.95;2.28;;;16.10;99.90;;;;;;5053616;28;20086;-76
2022/07/10 08:27:13;;;;;;;10.25;2.05;;;15.90;99.90;;;;;;5071333;28;20040;-75
2022/07/10 08:29:39;;;;;;;6.55;1.55;;;16.00;99.90;;;;;;5053671;28;20051;-75
2022/07/10 08:32:09;;;;;;;6.05;2.03;;;16.40;99.90;;;;;;5054736;28;20093;-79
2022/07/10 08:34:36;;;;;;;6.53;2.08;;;16.10;99.90;;;;;;5058654;28;20390;-71
2022/07/10 08:37:02;;;;;;;4.82;1.50;;;16.20;99.90;;;;;;5050551;28;20045;-71
2022/07/10 08:39:28;;;;;;;6.05;1.60;;;16.20;99.90;;;;;;5061832;28;20043;-71
2022/07/10 08:41:54;;;;;;;8.88;1.90;;;16.20;99.90;;;;;;5069947;28;20769;-73
2022/07/10 08:44:21;;;;;;;5.97;1.60;;;16.10;99.90;;;;;;5071716;28;20047;-71
2022/07/10 08:46:47;;;;;;;7.15;1.83;;;16.20;99.90;;;;;;5070618;28;20068;-75
2022/07/10 08:49:15;;;;;;;6.38;2.10;;;16.20;99.90;;;;;;5063460;28;20771;-73
2022/07/10 08:51:53;;;;;;;7.00;2.05;;;16.20;99.90;;;;;;5053216;28;20146;-72
2022/07/10 08:54:20;;;;;;;8.32;1.80;;;16.30;99.90;;;;;;5062417;28;20829;-71
2022/07/10 08:56:47;;;;;;;9.52;1.95;;;16.60;99.90;;;;;;5050709;28;20509;-73
2022/07/10 08:59:14;;;;;;;9.30;1.75;;;16.40;99.90;;;;;;5052282;28;20041;-74
2022/07/10 09:01:39;;;;;;;8.52;2.00;;;15.90;99.90;;;;;;5062528;28;20040;-73
2022/07/10 09:04:05;;;;;;;7.15;1.98;;;16.20;99.90;;;;;;5060779;28;20032;-76
2022/07/10 09:06:31;;;;;;;6.13;1.92;;;16.50;99.90;;;;;;5060765;28;20501;-76
2022/07/10 09:09:02;;;;;;;7.32;1.83;;;16.40;99.90;;;;;;5057694;28;20490;-80
2022/07/10 09:11:30;;;;;;;7.95;1.70;;;15.90;99.90;;;;;;5062271;28;20036;-76
2022/07/10 09:14:03;;;;;;;7.88;1.80;;;16.00;99.90;;;;;;5055639;28;20045;-76
2022/07/10 09:16:33;;;;;;;7.45;2.15;;;16.50;99.90;;;;;;5052572;28;20043;-79
2022/07/10 09:19:21;;;;;;;7.38;1.90;;;16.20;99.90;;;;;;5067227;28;20044;-78
2022/07/10 09:21:55;;;;;;;6.68;1.98;;;16.60;99.90;;;;;;5057324;28;20064;-78
2022/07/10 09:24:23;;;;;;;8.63;2.57;;;16.00;99.90;;;;;;5061991;28;20135;-76
2022/07/10 09:26:58;;;;;;;9.05;1.83;;;16.40;99.90;;;;;;5051673;28;20306;-74
2022/07/10 09:29:25;;;;;;;9.55;3.50;;;15.90;99.90;;;;;;5051757;28;20077;-74
2022/07/10 09:31:55;;;;;;;9.68;1.98;;;15.70;99.90;;;;;;5068130;28;20117;-77
2022/07/10 09:34:44;;;;;;;5.93;2.22;;;16.40;99.90;;;;;;5072452;28;20044;-76
2022/07/10 09:37:18;;;;;;;6.03;2.40;;;16.30;99.90;;;;;;5068968;28;20119;-76
2022/07/10 09:39:54;;;;;;;;;;;16.00;99.90;;;;;;5055710;28;20155;-77
2022/07/10 09:42:30;;;;;;;6.95;2.47;;;16.00;99.90;;;;;;5061857;28;19928;-77
2022/07/10 09:45:16;;;;;;;5.30;1.67;;;16.20;99.90;;;;;;5054568;28;20041;-78
2022/07/10 09:47:45;;;;;;;5.13;1.55;;;;;;;;;;5069701;28;20131;-77
2022/07/10 09:50:24;;;;;;;6.07;2.13;;;;;;;;;;5052883;28;20051;-71
2022/07/10 09:53:01;;;;;;;4.70;1.48;;;16.50;99.90;;;;;;5064591;28;20040;-72
2022/07/10 09:55:29;;;;;;;6.65;1.90;;;16.80;99.90;;;;;;5059833;28;20053;-73
2022/07/10 09:57:56;;;;;;;9.13;2.10;;;;;;;;;;5068852;28;20040;-73
2022/07/10 10:00:42;;;;;;;5.22;2.25;;;16.40;99.90;;;;;;5070132;28;20048;-72
2022/07/10 10:03:11;;;;;;;6.60;1.60;;;17.00;99.90;;;;;;5068793;28;20048;-75
2022/07/10 10:05:39;;;;;;;5.65;1.63;;;;;;;;;;5059108;28;20049;-75
2022/07/10 10:08:17;;;;;;;5.10;1.70;;;;;;;;;;5051418;28;20052;-69
2022/07/10 10:10:48;;;;;;;6.88;1.85;;;17.20;99.90;;;;;;5052684;28;20448;-79
2022/07/10 10:13:22;;;;;;;8.13;2.25;;;17.00;99.90;;;;;;5051410;28;20099;-74
2022/07/10 10:15:50;;;;;;;7.57;1.73;;;17.40;99.90;;;;;;5051225;28;20045;-71
2022/07/10 10:18:26;;;;;;;4.40;1.60;;;17.70;99.90;;;;;;5052540;28;20048;-78
2022/07/10 10:20:54;;;;;;;5.25;2.00;;;17.30;99.90;;;;;;5059467;28;20602;-78
2022/07/10 10:23:21;;;;;;;4.63;1.83;;;17.70;99.90;;;;;;5069227;28;20503;-76
2022/07/10 10:25:54;;;;;;;7.28;1.77;;;17.60;99.90;;;;;;5068120;28;20044;-75
2022/07/10 10:28:23;;;;;;;5.25;1.75;;;17.90;99.90;;;;;;5068619;28;20512;-77
2022/07/10 10:30:53;;;;;;;4.72;1.40;;;17.90;99.90;;;;;;5060676;28;20041;-76
2022/07/10 10:33:35;;;;;;;4.38;1.45;;;17.40;99.90;;;;;;5053606;28;20044;-74
2022/07/10 10:36:02;;;;;;;4.15;1.50;;;17.40;99.90;;;;;;5053743;28;20041;-76
2022/07/10 10:38:55;;;;;;;6.07;1.45;;;17.30;99.90;;;;;;5069450;28;20497;-77
2022/07/10 10:41:25;;;;;;;7.15;1.75;;;17.40;99.90;;;;;;5069292;28;20044;-75
2022/07/10 10:44:09;;;;;;;10.55;2.38;;;17.30;99.90;;;;;;5050610;28;20045;-75
2022/07/10 10:47:02;;;;;;;5.57;1.97;;;17.30;99.90;;;;;;5069054;28;20788;-74
2022/07/10 10:49:48;;;;;;;6.93;1.70;;;17.20;99.90;;;;;;5054734;28;20119;-73
2022/07/10 10:52:15;;;;;;;4.07;1.80;;;16.60;99.90;;;;;;5055251;28;20045;-74
2022/07/10 10:55:01;;;;;;;5.97;1.95;;;17.00;99.90;;;;;;5064438;28;20052;-73
2022/07/10 10:57:37;;;;;;;7.28;1.98;;;16.90;99.90;;;;;;5042916;28;20102;-73
2022/07/10 11:00:07;;;;;;;6.28;2.15;;;16.50;99.90;;;;;;5050963;28;20754;-73
2022/07/10 11:02:40;;;;;;;7.78;2.03;;;16.70;99.90;;;;;;5048540;28;20149;-73
2022/07/10 11:05:18;;;;;;;13.20;2.65;;;16.10;99.90;;;;;;5032272;28;20239;-75
2022/07/10 11:07:58;;;;;;;4.90;2.03;;;16.40;99.90;;;;;;5065906;28;20509;-76
2022/07/10 11:10:41;;;;;;;6.35;2.50;;;16.30;99.90;;;;;;5069402;28;20052;-76
2022/07/10 11:13:13;;;;;;;6.05;2.30;;;16.70;99.90;;;;;;5054143;28;20068;-75
2022/07/10 11:15:47;;;;;;;6.63;2.30;;;16.30;99.90;;;;;;5054339;28;20435;-72
2022/07/10 11:18:15;;;;;;;8.23;2.47;;;16.50;99.90;;;;;;5034485;28;20112;-72
2022/07/10 11:20:49;;;;;;;9.88;2.97;;;16.50;99.90;;;;;;5052794;28;20072;-73
2022/07/10 11:23:33;;;;;;;6.63;1.90;;;16.60;99.90;;;;;;5058271;28;20337;-72
2022/07/10 11:26:21;;;;;;;6.07;2.03;;;16.00;99.90;;;;;;5066543;28;20334;-75
2022/07/10 11:28:58;;;;;;;9.18;2.72;;;16.10;99.90;;;;;;5046041;28;20417;-74
2022/07/10 11:31:26;;;;;;;6.40;2.47;;;16.20;99.90;;;;;;5068699;28;20044;-74
2022/07/10 11:33:54;;;;;;;6.88;2.00;;;16.50;99.90;;;;;;5068325;28;20256;-73
2022/07/10 11:36:34;;;;;;;5.63;2.08;;;16.40;99.90;;;;;;5049696;28;20045;-72
2022/07/10 11:39:04;;;;;;;7.18;2.10;;;16.10;99.90;;;;;;5048955;28;20048;-72
2022/07/10 11:41:30;;;;;;;8.02;1.88;;;16.50;99.90;;;;;;5050798;28;20166;-74
2022/07/10 11:43:58;;;;;;;6.32;2.03;;;16.70;99.90;;;;;;5048212;28;20079;-76
2022/07/10 11:46:26;;;;;;;8.82;2.20;;;17.00;99.90;;;;;;5030975;28;20132;-75
2022/07/10 11:48:58;;;;;;;8.05;1.65;;;16.50;99.90;;;;;;5049945;28;20743;-73
2022/07/10 11:51:25;;;;;;;7.97;1.92;;;17.00;99.90;;;;;;5050845;28;20040;-73
2022/07/10 11:54:09;;;;;;;7.57;1.73;;;16.40;99.90;;;;;;5069306;28;20036;-73
2022/07/10 11:56:36;;;;;;;6.30;2.13;;;17.10;99.90;;;;;;5063545;28;20137;-75
2022/07/10 11:59:10;;;;;;;5.93;1.67;;;16.70;99.90;;;;;;5053958;28;20424;-75
2022/07/10 12:01:45;;;;;;;7.32;2.38;;;16.70;99.90;;;;;;5051574;28;20056;-76
2022/07/10 12:04:13;;;;;;;9.60;2.40;;;16.70;99.90;;;;;;5040189;28;20485;-74
2022/07/10 12:06:44;;;;;;;7.90;1.95;;;16.90;99.90;;;;;;5057896;28;20036;-75
2022/07/10 12:09:12;;;;;;;5.90;1.90;;;16.70;99.90;;;;;;5059814;28;20049;-73
2022/07/10 12:11:39;;;;;;;5.43;2.38;;;16.70;99.90;;;;;;5050144;28;20108;-73
2022/07/10 12:14:14;;;;;;;6.05;1.88;;;16.30;99.90;;;;;;5048653;28;20087;-74
2022/07/10 12:16:44;;;;;;;7.65;2.05;;;16.50;99.90;;;;;;5049783;28;20043;-72
2022/07/10 12:19:14;;;;;;;9.02;2.40;;;17.00;99.90;;;;;;5046735;28;20091;-73
2022/07/10 12:21:43;;;;;;;15.75;2.58;;;16.80;99.90;;;;;;5047972;28;20053;-72
2022/07/10 12:24:09;;;;;;;7.22;2.05;;;16.80;99.90;;;;;;5047992;28;20091;-73
2022/07/10 12:26:43;;;;;;;5.50;2.28;;;16.90;99.90;;;;;;5046733;28;20505;-73
2022/07/10 12:29:19;;;;;;;6.13;2.17;;;17.00;99.90;;;;;;5048794;28;20502;-73
2022/07/10 12:31:47;;;;;;;8.15;2.20;;;17.50;99.90;;;;;;5065173;28;20036;-73
2022/07/10 12:34:13;;;;;;;5.43;2.10;;;17.50;99.90;;;;;;5065520;28;20121;-74
2022/07/10 12:36:52;;;;;;;6.25;1.77;;;17.40;99.90;;;;;;5045954;28;20078;-73
2022/07/10 12:39:23;;;;;;;7.10;1.90;;;17.30;99.90;;;;;;5060061;28;20113;-75
2022/07/10 12:42:06;;;;;;;4.85;1.50;;;;;;;;;;5067692;28;20040;-75
2022/07/10 12:44:41;;;;;;;4.65;1.83;;;;;;;;;;5067593;28;20052;-75
2022/07/10 12:47:09;;;;;;;7.60;2.15;;;;;;;;;;5067015;28;20607;-79
2022/07/10 12:49:53;;;;;;;7.90;1.67;;;;;;;;;;5063063;28;20041;-81
2022/07/10 12:52:20;;;;;;;6.72;1.77;;;;;;;;;;5047603;28;20060;-78
2022/07/10 12:54:46;;;;;;;5.95;1.67;;;;;;;;;;5057295;28;20393;-80
2022/07/10 12:57:12;;;;;;;5.32;1.90;;;;;;;;;;5048853;28;20045;-78
2022/07/10 12:59:38;;;;;;;4.30;1.75;;;;;;;;;;5055910;28;20098;-78
2022/07/10 13:02:15;;;;;;;4.35;1.58;;;;;;;;;;5069694;28;20052;-78
2022/07/10 13:04:51;;;;;;;5.22;1.17;;;;;;;;;;5071003;28;20055;-82
2022/07/10 13:07:17;;;;;;;3.22;1.13;;;;;;;;;;5072490;28;20102;-79
2022/07/10 13:09:44;;;;;;;4.25;1.30;;;18.80;99.90;;;;;;5070624;28;20052;-79
2022/07/10 13:12:10;;;;;;;5.30;1.33;;;18.80;99.90;;;;;;5070993;28;20053;-75